createdAt,value
2018-08-25T00:00:04.438Z,17.60
2018-08-25T00:02:32.512Z,17.50
2018-08-25T00:05:00.586Z,17.50
2018-08-25T00:07:28.687Z,17.50
2018-08-25T00:09:56.887Z,17.50
2018-08-25T00:12:24.985Z,17.50
2018-08-25T00:14:53.027Z,17.50
2018-08-25T00:17:27.938Z,17.50
2018-08-25T00:19:56.045Z,17.50
2018-08-25T00:24:58.676Z,17.40
2018-08-25T00:27:26.718Z,17.40
2018-08-25T00:29:54.768Z,17.40
2018-08-25T00:32:22.863Z,17.40
2018-08-25T00:34:50.959Z,17.30
2018-08-25T00:37:19.127Z,17.30
2018-08-25T00:39:47.205Z,17.30
2018-08-25T00:42:15.273Z,17.40
2018-08-25T00:44:43.430Z,17.40
2018-08-25T00:47:11.528Z,17.40
2018-08-25T00:49:39.610Z,17.40
2018-08-25T00:52:07.741Z,17.40
2018-08-25T00:54:35.837Z,17.40
2018-08-25T00:57:03.909Z,17.40
2018-08-25T00:59:32.037Z,17.40
2018-08-25T01:02:00.048Z,17.40
2018-08-25T01:04:28.101Z,17.40
2018-08-25T01:06:56.174Z,17.30
2018-08-25T01:09:24.244Z,17.40
2018-08-25T01:11:52.292Z,17.40
2018-08-25T01:14:20.392Z,17.40
2018-08-25T01:16:48.493Z,17.30
2018-08-25T01:19:16.547Z,17.30
2018-08-25T01:21:44.610Z,17.20
2018-08-25T01:24:12.672Z,17.20
2018-08-25T01:26:40.771Z,17.20
2018-08-25T01:29:08.861Z,17.10
2018-08-25T01:31:36.976Z,17.10
2018-08-25T01:34:05.048Z,17.20
2018-08-25T01:36:33.118Z,17.30
2018-08-25T01:39:01.189Z,17.20
2018-08-25T01:41:29.296Z,17.20
2018-08-25T01:43:57.374Z,17.20
2018-08-25T01:46:25.469Z,17.20
2018-08-25T01:48:53.523Z,17.10
2018-08-25T01:51:21.592Z,17.00
2018-08-25T01:53:49.688Z,17.00
2018-08-25T01:56:17.785Z,17.00
2018-08-25T01:58:45.862Z,17.00
2018-08-25T02:01:13.957Z,17.00
2018-08-25T02:03:42.051Z,17.00
2018-08-25T02:06:10.154Z,17.00
2018-08-25T02:08:38.203Z,17.10
2018-08-25T02:11:06.248Z,17.00
2018-08-25T02:13:34.314Z,17.00
2018-08-25T02:16:02.429Z,17.00
2018-08-25T02:18:30.547Z,17.00
2018-08-25T02:20:58.618Z,16.90
2018-08-25T02:23:26.696Z,16.90
2018-08-25T02:25:54.763Z,16.80
2018-08-25T02:28:22.931Z,16.70
2018-08-25T02:30:51.071Z,16.60
2018-08-25T02:33:19.158Z,16.70
2018-08-25T02:35:47.210Z,16.70
2018-08-25T02:38:15.338Z,16.70
2018-08-25T02:40:43.470Z,16.60
2018-08-25T02:43:11.568Z,16.50
2018-08-25T02:45:39.623Z,16.50
2018-08-25T02:48:07.681Z,16.50
2018-08-25T02:50:35.762Z,16.60
2018-08-25T02:53:03.865Z,16.60
2018-08-25T02:55:31.918Z,16.60
2018-08-25T02:57:59.990Z,16.70
2018-08-25T03:00:28.074Z,16.80
2018-08-25T03:02:56.184Z,16.90
2018-08-25T03:05:24.247Z,17.00
2018-08-25T03:07:52.363Z,16.90
2018-08-25T03:10:20.417Z,16.90
2018-08-25T03:12:48.577Z,16.90
2018-08-25T03:15:16.688Z,16.90
2018-08-25T03:17:44.962Z,16.80
2018-08-25T03:20:13.140Z,16.80
2018-08-25T03:22:41.289Z,16.70
2018-08-25T03:25:09.660Z,16.70
2018-08-25T03:27:37.750Z,16.60
2018-08-25T03:30:05.826Z,16.70
2018-08-25T03:32:33.956Z,16.80
2018-08-25T03:35:02.019Z,16.90
2018-08-25T03:37:30.107Z,16.90
2018-08-25T03:39:58.152Z,16.90
2018-08-25T03:42:26.292Z,16.90
2018-08-25T03:44:54.350Z,16.80
2018-08-25T03:47:22.442Z,16.80
2018-08-25T03:49:50.514Z,16.70
2018-08-25T03:52:18.589Z,16.70
2018-08-25T03:54:46.653Z,16.80
2018-08-25T03:57:14.773Z,16.90
2018-08-25T03:59:42.844Z,16.90
2018-08-25T04:02:10.898Z,17.00
2018-08-25T04:04:38.987Z,16.90
2018-08-25T04:07:07.043Z,16.80
2018-08-25T04:09:35.129Z,16.80
2018-08-25T04:12:03.286Z,16.80
2018-08-25T04:14:31.394Z,16.80
2018-08-25T04:16:59.446Z,16.70
2018-08-25T04:19:27.574Z,16.70
2018-08-25T04:21:55.645Z,16.70
2018-08-25T04:24:23.703Z,16.80
2018-08-25T04:26:51.799Z,16.80
2018-08-25T04:29:19.879Z,16.90
2018-08-25T04:31:47.966Z,16.90
2018-08-25T04:34:16.043Z,16.90
2018-08-25T04:36:44.104Z,16.90
2018-08-25T04:39:12.517Z,16.90
2018-08-25T04:41:40.685Z,16.90
2018-08-25T04:44:09.273Z,17.00
2018-08-25T04:46:37.430Z,16.90
2018-08-25T04:49:05.799Z,16.80
2018-08-25T04:51:33.882Z,16.80
2018-08-25T04:54:01.968Z,16.90
2018-08-25T04:56:30.056Z,17.00
2018-08-25T04:58:58.118Z,17.00
2018-08-25T05:01:26.211Z,17.00
2018-08-25T05:03:54.339Z,17.00
2018-08-25T05:06:22.432Z,17.00
2018-08-25T05:08:50.507Z,16.90
2018-08-25T05:11:18.558Z,16.90
2018-08-25T05:13:46.663Z,18.20
2018-08-25T05:16:14.714Z,16.90
2018-08-25T05:18:42.800Z,16.90
2018-08-25T05:21:10.904Z,17.00
2018-08-25T05:23:39.010Z,17.00
2018-08-25T05:26:07.187Z,17.00
2018-08-25T05:28:35.365Z,17.00
2018-08-25T05:31:03.630Z,17.10
2018-08-25T05:33:31.763Z,17.20
2018-08-25T05:35:59.835Z,17.30
2018-08-25T05:38:27.926Z,17.30
2018-08-25T05:40:55.986Z,17.30
2018-08-25T05:43:24.082Z,17.40
2018-08-25T05:45:52.177Z,17.50
2018-08-25T05:48:20.380Z,17.50
2018-08-25T05:50:48.424Z,17.50
2018-08-25T05:53:16.494Z,17.60
2018-08-25T05:55:44.562Z,17.60
2018-08-25T05:58:12.700Z,17.60
2018-08-25T06:00:42.267Z,17.70
2018-08-25T06:03:10.366Z,17.70
2018-08-25T06:05:38.438Z,17.80
2018-08-25T06:08:06.560Z,17.80
2018-08-25T06:10:34.601Z,17.90
2018-08-25T06:13:02.686Z,18.20
2018-08-25T06:15:30.773Z,18.00
2018-08-25T06:17:58.830Z,18.00
2018-08-25T06:20:26.945Z,18.10
2018-08-25T06:22:54.974Z,18.10
2018-08-25T06:25:23.104Z,18.20
2018-08-25T06:27:51.219Z,18.20
2018-08-25T06:30:19.323Z,18.00
2018-08-25T06:32:47.398Z,18.20
2018-08-25T06:35:15.531Z,18.40
2018-08-25T06:37:43.607Z,18.60
2018-08-25T06:40:11.728Z,18.70
2018-08-25T06:42:39.941Z,18.70
2018-08-25T06:45:07.941Z,18.70
2018-08-25T06:47:36.111Z,18.80
2018-08-25T06:50:04.232Z,18.90
2018-08-25T06:52:32.339Z,18.70
2018-08-25T06:55:00.442Z,18.80
2018-08-25T06:57:28.511Z,18.70
2018-08-25T06:59:56.623Z,18.80
2018-08-25T07:02:24.722Z,19.00
2018-08-25T07:04:52.795Z,19.10
2018-08-25T07:07:21.780Z,19.00
2018-08-25T07:09:49.955Z,19.10
2018-08-25T07:12:18.043Z,19.20
2018-08-25T07:14:46.160Z,19.30
2018-08-25T07:17:14.218Z,19.40
2018-08-25T07:19:42.332Z,19.60
2018-08-25T07:22:10.499Z,19.70
2018-08-25T07:24:38.627Z,19.70
2018-08-25T07:27:06.710Z,19.80
2018-08-25T07:29:34.818Z,19.70
2018-08-25T07:32:03.009Z,19.70
2018-08-25T07:34:31.109Z,19.70
2018-08-25T07:36:59.300Z,19.40
2018-08-25T07:39:27.463Z,19.30
2018-08-25T07:41:55.566Z,19.50
2018-08-25T07:44:23.678Z,19.50
2018-08-25T07:46:52.979Z,19.50
2018-08-25T07:49:21.410Z,19.50
2018-08-25T07:51:49.559Z,19.50
2018-08-25T07:54:17.634Z,19.40
2018-08-25T07:56:45.754Z,19.40
2018-08-25T07:59:13.908Z,19.40
2018-08-25T08:01:41.963Z,19.50
2018-08-25T08:04:10.096Z,19.60
2018-08-25T08:06:38.229Z,19.50
2018-08-25T08:09:07.996Z,19.60
2018-08-25T08:11:36.278Z,19.60
2018-08-25T08:14:04.419Z,19.60
2018-08-25T08:16:32.507Z,19.60
2018-08-25T08:19:00.631Z,19.70
2018-08-25T08:21:28.741Z,19.80
2018-08-25T08:23:56.819Z,19.90
2018-08-25T08:26:24.953Z,19.80
2018-08-25T08:28:53.056Z,19.90
2018-08-25T08:31:21.135Z,20.10
2018-08-25T08:33:49.593Z,20.20
2018-08-25T08:36:17.730Z,20.20
2018-08-25T08:38:45.828Z,20.30
2018-08-25T08:41:13.907Z,20.40
2018-08-25T08:43:42.007Z,20.50
2018-08-25T08:46:10.143Z,20.60
2018-08-25T08:48:38.560Z,20.70
2018-08-25T08:51:07.201Z,20.60
2018-08-25T08:53:35.352Z,20.60
2018-08-25T08:56:03.495Z,20.70
2018-08-25T08:58:31.550Z,20.70
2018-08-25T09:00:59.731Z,20.70
2018-08-25T09:03:27.866Z,20.80
2018-08-25T09:05:55.950Z,20.80
2018-08-25T09:08:24.092Z,20.90
2018-08-25T09:10:52.164Z,21.00
2018-08-25T09:13:20.224Z,20.90
2018-08-25T09:15:48.339Z,20.60
2018-08-25T09:18:16.478Z,20.70
2018-08-25T09:20:44.595Z,20.90
2018-08-25T09:23:12.662Z,20.90
2018-08-25T09:25:40.820Z,20.90
2018-08-25T09:28:08.990Z,20.90
2018-08-25T09:30:37.061Z,20.90
2018-08-25T09:33:05.353Z,20.80
2018-08-25T09:35:33.573Z,20.70
2018-08-25T09:38:01.761Z,20.80
2018-08-25T09:40:36.130Z,21.20
2018-08-25T09:43:04.484Z,21.50
2018-08-25T09:45:32.545Z,21.50
2018-08-25T09:48:00.707Z,21.70
2018-08-25T09:50:28.787Z,21.50
2018-08-25T09:52:56.874Z,21.60
2018-08-25T09:55:24.936Z,21.70
2018-08-25T09:57:53.082Z,21.60
2018-08-25T10:00:21.235Z,21.40
2018-08-25T10:02:49.334Z,21.60
2018-08-25T10:05:17.519Z,21.80
2018-08-25T10:07:45.619Z,21.50
2018-08-25T10:10:13.705Z,21.40
2018-08-25T10:12:41.800Z,21.20
2018-08-25T10:15:09.872Z,21.30
2018-08-25T10:17:37.983Z,21.10
2018-08-25T10:20:06.170Z,21.20
2018-08-25T10:22:34.261Z,21.40
2018-08-25T10:25:02.330Z,21.60
2018-08-25T10:27:30.410Z,21.80
2018-08-25T10:29:58.477Z,22.00
2018-08-25T10:32:26.563Z,22.00
2018-08-25T10:34:54.622Z,22.10
2018-08-25T10:37:22.683Z,22.20
2018-08-25T10:39:50.786Z,22.00
2018-08-25T10:42:18.860Z,22.10
2018-08-25T10:44:47.065Z,22.00
2018-08-25T10:47:15.150Z,22.10
2018-08-25T10:49:43.225Z,22.10
2018-08-25T10:52:11.445Z,22.00
2018-08-25T10:54:39.550Z,21.70
2018-08-25T10:57:07.655Z,21.60
2018-08-25T10:59:35.756Z,21.50
2018-08-25T11:02:03.923Z,21.50
2018-08-25T11:04:35.097Z,21.50
2018-08-25T11:07:03.211Z,21.50
2018-08-25T11:09:31.346Z,21.30
2018-08-25T11:11:59.460Z,21.20
2018-08-25T11:14:27.556Z,21.20
2018-08-25T11:16:55.731Z,21.30
2018-08-25T11:19:23.802Z,21.40
2018-08-25T11:21:51.898Z,21.40
2018-08-25T11:24:19.993Z,21.40
2018-08-25T11:26:48.105Z,21.30
2018-08-25T11:29:16.249Z,21.30
2018-08-25T11:31:44.321Z,21.20
2018-08-25T11:34:12.376Z,21.30
2018-08-25T11:36:40.428Z,21.30
2018-08-25T11:39:09.722Z,21.20
2018-08-25T11:41:37.790Z,21.30
2018-08-25T11:44:05.929Z,21.40
2018-08-25T11:46:33.990Z,21.50
2018-08-25T11:49:02.103Z,21.90
2018-08-25T11:51:30.175Z,22.20
2018-08-25T11:53:58.399Z,22.20
2018-08-25T11:56:26.635Z,22.40
2018-08-25T11:58:54.728Z,22.50
2018-08-25T12:01:23.234Z,22.50
2018-08-25T12:03:51.586Z,22.60
2018-08-25T12:06:19.778Z,22.60
2018-08-25T12:08:47.882Z,22.50
2018-08-25T12:11:15.980Z,22.40
2018-08-25T12:13:44.271Z,22.30
2018-08-25T12:16:12.366Z,22.20
2018-08-25T12:18:40.459Z,22.20
2018-08-25T12:21:08.523Z,22.20
2018-08-25T12:23:36.681Z,22.10
2018-08-25T12:26:04.720Z,22.00
2018-08-25T12:28:32.790Z,22.00
2018-08-25T12:31:00.847Z,21.80
2018-08-25T12:33:28.949Z,21.60
2018-08-25T12:35:57.005Z,21.50
2018-08-25T12:38:25.183Z,21.40
2018-08-25T12:40:53.251Z,21.30
2018-08-25T12:43:22.455Z,21.30
2018-08-25T12:45:50.578Z,21.30
2018-08-25T12:48:18.650Z,21.30
2018-08-25T12:50:46.760Z,21.30
2018-08-25T12:53:14.838Z,21.20
2018-08-25T12:55:42.958Z,21.20
2018-08-25T12:58:11.071Z,21.20
2018-08-25T13:00:39.157Z,21.10
2018-08-25T13:03:07.237Z,21.00
2018-08-25T13:05:35.313Z,21.00
2018-08-25T13:08:03.399Z,21.00
2018-08-25T13:10:31.489Z,20.90
2018-08-25T13:12:59.598Z,20.60
2018-08-25T13:15:27.754Z,20.40
2018-08-25T13:17:55.822Z,20.20
2018-08-25T13:20:23.955Z,20.00
2018-08-25T13:22:52.048Z,19.80
2018-08-25T13:25:20.165Z,19.50
2018-08-25T13:27:48.234Z,19.40
2018-08-25T13:30:16.379Z,19.40
2018-08-25T13:32:44.820Z,19.30
2018-08-25T13:35:12.877Z,19.00
2018-08-25T13:37:40.986Z,19.00
2018-08-25T13:40:09.081Z,18.80
2018-08-25T13:42:37.277Z,18.70
2018-08-25T13:45:05.351Z,18.40
2018-08-25T13:47:33.437Z,18.30
2018-08-25T13:50:02.863Z,18.20
2018-08-25T13:52:30.979Z,18.10
2018-08-25T13:54:59.046Z,18.10
2018-08-25T13:57:27.170Z,18.00
2018-08-25T13:59:55.349Z,17.90
2018-08-25T14:02:23.587Z,17.90
2018-08-25T14:04:51.676Z,17.80
2018-08-25T14:07:19.732Z,17.90
2018-08-25T14:09:48.299Z,17.80
2018-08-25T14:12:16.379Z,17.80
2018-08-25T14:14:44.479Z,17.80
2018-08-25T14:17:12.543Z,18.00
2018-08-25T14:19:40.694Z,17.90
2018-08-25T14:22:08.770Z,17.90
2018-08-25T14:24:36.879Z,18.20
2018-08-25T14:27:05.104Z,18.20
2018-08-25T14:29:33.186Z,18.20
2018-08-25T14:32:01.386Z,18.20
2018-08-25T14:34:29.472Z,18.20
2018-08-25T14:36:57.546Z,18.10
2018-08-25T14:39:25.642Z,18.10
2018-08-25T14:41:53.730Z,18.00
2018-08-25T14:44:21.873Z,17.90
2018-08-25T14:46:49.959Z,17.90
2018-08-25T14:49:18.112Z,17.80
2018-08-25T14:51:46.652Z,17.90
2018-08-25T14:54:14.726Z,18.00
2018-08-25T14:56:42.864Z,18.20
2018-08-25T14:59:10.978Z,18.40
2018-08-25T15:01:39.032Z,18.60
2018-08-25T15:04:07.111Z,18.50
2018-08-25T15:06:35.230Z,18.40
2018-08-25T15:09:03.616Z,18.50
2018-08-25T15:11:31.687Z,18.60
2018-08-25T15:13:59.915Z,18.70
2018-08-25T15:16:28.241Z,18.70
2018-08-25T15:18:56.425Z,18.70
2018-08-25T15:21:24.460Z,18.60
2018-08-25T15:23:52.592Z,18.70
2018-08-25T15:26:20.713Z,18.60
2018-08-25T15:28:48.811Z,18.40
2018-08-25T15:31:16.866Z,18.40
2018-08-25T15:33:44.935Z,18.40
2018-08-25T15:36:12.987Z,18.40
2018-08-25T15:38:41.067Z,18.50
2018-08-25T15:41:09.162Z,18.40
2018-08-25T15:43:37.199Z,18.40
2018-08-25T15:46:05.416Z,18.50
2018-08-25T15:48:33.512Z,18.60
2018-08-25T15:51:01.612Z,18.70
2018-08-25T15:53:29.681Z,18.70
2018-08-25T15:55:57.767Z,18.70
2018-08-25T15:58:25.924Z,18.80
2018-08-25T16:00:53.981Z,18.70
2018-08-25T16:03:22.077Z,18.80
2018-08-25T16:05:50.184Z,18.80
2018-08-25T16:08:18.279Z,18.80
2018-08-25T16:10:46.336Z,18.80
2018-08-25T16:13:14.413Z,18.80
2018-08-25T16:15:42.517Z,18.80
2018-08-25T16:18:10.619Z,18.80
2018-08-25T16:20:38.900Z,18.80
2018-08-25T16:23:06.976Z,18.70
2018-08-25T16:25:36.351Z,18.40
2018-08-25T16:28:04.455Z,18.30
2018-08-25T16:30:32.621Z,18.10
2018-08-25T16:33:00.791Z,17.90
2018-08-25T16:35:28.899Z,17.90
2018-08-25T16:37:57.195Z,17.90
2018-08-25T16:40:25.387Z,17.90
2018-08-25T16:42:53.481Z,17.80
2018-08-25T16:45:21.556Z,17.70
2018-08-25T16:47:51.014Z,17.60
2018-08-25T16:50:19.657Z,17.60
2018-08-25T16:52:47.763Z,17.60
2018-08-25T16:55:15.927Z,17.60
2018-08-25T16:57:43.984Z,17.60
2018-08-25T17:00:12.366Z,17.60
2018-08-25T17:02:40.445Z,17.60
2018-08-25T17:05:08.986Z,17.50
2018-08-25T17:07:37.070Z,17.50
2018-08-25T17:10:05.152Z,17.50
2018-08-25T17:12:33.256Z,17.50
2018-08-25T17:15:01.337Z,17.60
2018-08-25T17:17:29.520Z,17.60
2018-08-25T17:19:57.628Z,17.60
2018-08-25T17:22:25.730Z,17.50
2018-08-25T17:24:53.830Z,17.50
2018-08-25T17:27:21.922Z,17.50
2018-08-25T17:29:49.973Z,17.50
2018-08-25T17:32:18.100Z,17.40
2018-08-25T17:34:46.181Z,17.40
2018-08-25T17:37:14.271Z,17.30
2018-08-25T17:39:42.309Z,17.30
2018-08-25T17:42:10.383Z,17.20
2018-08-25T17:44:38.496Z,17.20
2018-08-25T17:47:06.598Z,17.20
2018-08-25T17:49:34.670Z,17.20
2018-08-25T17:52:02.825Z,17.10
2018-08-25T17:54:30.920Z,17.10
2018-08-25T17:56:59.109Z,17.10
2018-08-25T17:59:27.132Z,17.00
2018-08-25T18:01:55.211Z,17.00
2018-08-25T18:04:23.257Z,17.00
2018-08-25T18:06:51.327Z,17.00
2018-08-25T18:09:19.406Z,17.00
2018-08-25T18:11:47.543Z,16.90
2018-08-25T18:14:15.610Z,16.80
2018-08-25T18:16:43.755Z,16.80
2018-08-25T18:19:11.995Z,16.80
2018-08-25T18:21:40.377Z,16.70
2018-08-25T18:24:08.654Z,16.60
2018-08-25T18:26:36.775Z,16.50
2018-08-25T18:29:05.064Z,16.50
2018-08-25T18:31:33.168Z,16.50
2018-08-25T18:34:01.202Z,16.50
2018-08-25T18:36:29.276Z,16.50
2018-08-25T18:38:57.376Z,16.50
2018-08-25T18:41:25.453Z,16.50
2018-08-25T18:43:53.562Z,16.50
2018-08-25T18:46:21.817Z,16.40
2018-08-25T18:48:49.936Z,16.40
2018-08-25T18:51:18.062Z,16.40
2018-08-25T18:53:46.134Z,16.40
2018-08-25T18:56:14.271Z,16.40
2018-08-25T18:58:42.384Z,16.30
2018-08-25T19:01:10.429Z,16.30
2018-08-25T19:03:38.693Z,16.30
2018-08-25T19:06:06.783Z,16.20
2018-08-25T19:08:34.911Z,16.20
2018-08-25T19:11:02.936Z,16.20
2018-08-25T19:13:31.035Z,16.10
2018-08-25T19:15:59.167Z,16.10
2018-08-25T19:18:27.266Z,16.10
2018-08-25T19:20:55.459Z,16.10
2018-08-25T19:23:23.526Z,16.10
2018-08-25T19:25:51.664Z,16.00
2018-08-25T19:28:19.723Z,15.90
2018-08-25T19:30:47.836Z,15.90
2018-08-25T19:33:15.947Z,15.80
2018-08-25T19:35:44.085Z,15.70
2018-08-25T19:38:12.270Z,15.70
2018-08-25T19:40:40.367Z,15.80
2018-08-25T19:43:08.596Z,15.70
2018-08-25T19:45:36.698Z,15.70
2018-08-25T19:48:04.849Z,15.60
2018-08-25T19:50:33.073Z,15.60
2018-08-25T19:53:01.264Z,15.50
2018-08-25T19:55:29.356Z,15.40
2018-08-25T19:57:57.499Z,15.40
2018-08-25T20:00:25.710Z,15.40
2018-08-25T20:02:53.732Z,15.40
2018-08-25T20:05:21.978Z,15.40
2018-08-25T20:07:50.065Z,15.40
2018-08-25T20:10:18.113Z,15.40
2018-08-25T20:12:46.232Z,15.40
2018-08-25T20:15:14.339Z,15.30
2018-08-25T20:17:42.552Z,15.30
2018-08-25T20:20:10.643Z,15.30
2018-08-25T20:22:38.796Z,15.20
2018-08-25T20:25:07.665Z,15.20
2018-08-25T20:27:35.750Z,15.20
2018-08-25T20:30:04.068Z,15.20
2018-08-25T20:32:32.262Z,15.10
2018-08-25T20:35:00.348Z,15.10
2018-08-25T20:37:28.446Z,15.10
2018-08-25T20:39:56.529Z,15.10
2018-08-25T20:42:24.606Z,15.10
2018-08-25T20:44:52.719Z,15.10
2018-08-25T20:47:20.784Z,15.10
2018-08-25T20:49:48.984Z,15.00
2018-08-25T20:52:17.061Z,15.10
2018-08-25T20:54:45.153Z,15.00
2018-08-25T20:57:13.304Z,15.00
2018-08-25T20:59:41.489Z,15.00
2018-08-25T21:02:09.610Z,13.10
2018-08-25T21:04:37.820Z,15.10
2018-08-25T21:07:05.892Z,15.10
2018-08-25T21:09:33.954Z,15.20
2018-08-25T21:12:02.091Z,15.20
2018-08-25T21:14:30.170Z,15.20
2018-08-25T21:16:58.320Z,15.20
2018-08-25T21:19:26.454Z,15.10
2018-08-25T21:21:54.546Z,15.00
2018-08-25T21:24:22.642Z,15.00
2018-08-25T21:26:50.782Z,14.90
2018-08-25T21:29:18.891Z,15.00
2018-08-25T21:31:46.987Z,14.90
2018-08-25T21:34:15.149Z,14.90
2018-08-25T21:36:43.214Z,14.90
2018-08-25T21:39:12.487Z,14.80
2018-08-25T21:41:40.803Z,14.80
2018-08-25T21:44:09.059Z,14.70
2018-08-25T21:46:37.150Z,14.70
2018-08-25T21:49:05.223Z,14.60
2018-08-25T21:51:33.823Z,14.60
2018-08-25T21:54:01.907Z,14.50
2018-08-25T21:56:30.021Z,14.50
2018-08-25T21:58:58.153Z,14.60
2018-08-25T22:01:28.857Z,14.50
2018-08-25T22:03:56.923Z,14.50
2018-08-25T22:06:25.041Z,14.50
2018-08-25T22:08:53.275Z,14.50
2018-08-25T22:11:21.434Z,14.50
2018-08-25T22:13:49.458Z,14.50
2018-08-25T22:16:17.634Z,14.50
2018-08-25T22:18:45.954Z,14.50
2018-08-25T22:21:14.086Z,14.60
2018-08-25T22:23:42.274Z,14.60
2018-08-25T22:26:10.334Z,14.60
2018-08-25T22:28:38.551Z,14.50
2018-08-25T22:31:06.781Z,14.50
2018-08-25T22:33:34.809Z,14.50
2018-08-25T22:36:02.954Z,14.50
2018-08-25T22:38:31.068Z,14.60
2018-08-25T22:40:59.135Z,14.60
2018-08-25T22:43:27.206Z,14.60
2018-08-25T22:45:55.326Z,14.50
2018-08-25T22:48:23.449Z,14.50
2018-08-25T22:50:51.688Z,14.50
2018-08-25T22:53:19.756Z,14.50
2018-08-25T22:55:48.265Z,14.40
2018-08-25T22:58:16.379Z,14.40
2018-08-25T23:00:44.502Z,14.30
2018-08-25T23:03:12.885Z,14.30
2018-08-25T23:05:41.185Z,14.20
2018-08-25T23:08:09.282Z,14.20
2018-08-25T23:10:37.400Z,14.20
2018-08-25T23:13:05.793Z,14.10
2018-08-25T23:15:33.846Z,14.10
2018-08-25T23:18:01.972Z,14.10
2018-08-25T23:20:30.079Z,14.10
2018-08-25T23:22:58.158Z,14.10
2018-08-25T23:25:26.317Z,14.10
2018-08-25T23:27:54.428Z,14.10
2018-08-25T23:30:22.519Z,14.10
2018-08-25T23:32:50.630Z,14.00
2018-08-25T23:35:18.735Z,14.00
2018-08-25T23:37:46.899Z,14.00
2018-08-25T23:40:15.005Z,14.00
2018-08-25T23:42:43.088Z,14.00
2018-08-25T23:45:11.195Z,13.90
2018-08-25T23:47:39.333Z,13.90
2018-08-25T23:50:07.441Z,13.90
2018-08-25T23:52:36.597Z,13.90
2018-08-25T23:55:06.528Z,13.80
2018-08-25T23:57:34.587Z,13.80
